Time;durP1;ratioP1;P1;durP2;ratioP2;P2;SDS_P1;SDS_P2;PMS_P1;PMS_P2;Temp;Humidity;BMP_temperature;BMP_pressure;BME280_temperature;BME280_humidity;BME280_pressure;Samples;Min_cycle;Max_cycle;Signal;HPM_P1;HPM_P2
2022/06/02 00:01:07;;;;;;;4.15;3.45;;;;;;;15.14;82.14;100271.00;5053395;28;20020;-77
2022/06/02 00:03:49;;;;;;;4.53;3.22;;;;;;;14.83;84.51;100262.47;5052190;28;20493;-77
2022/06/02 00:06:24;;;;;;;4.90;4.05;;;;;;;14.66;85.00;100275.88;5052417;28;20060;-78
2022/06/02 00:09:20;;;;;;;3.80;3.40;;;;;;;14.43;86.39;100279.81;5053572;28;20048;-78
2022/06/02 00:11:45;;;;;;;5.68;4.57;;;;;;;14.32;88.12;100268.22;5053034;28;20065;-77
2022/06/02 00:14:18;;;;;;;8.40;4.88;;;;;;;14.37;86.54;100262.56;5053299;28;20496;-80
2022/06/02 00:16:56;;;;;;;4.65;4.15;;;;;;;14.28;86.95;100246.31;5052159;28;20021;-77
2022/06/02 00:19:45;;;;;;;6.43;4.88;;;;;;;14.22;88.19;100248.34;5035234;28;20025;-77
2022/06/02 00:22:24;;;;;;;9.27;4.47;;;;;;;14.17;88.61;100256.88;5051757;28;20040;-77
2022/06/02 00:25:23;;;;;;;5.82;4.63;;;;;;;14.16;87.50;100272.47;5035217;28;20024;-77
2022/06/02 00:28:11;;;;;;;6.38;5.05;;;;;;;14.15;88.84;100280.31;5051789;28;20079;-79
2022/06/02 00:31:06;;;;;;;8.15;5.50;;;;;;;14.11;88.96;100262.53;5051707;28;20033;-77
2022/06/02 00:33:57;;;;;;;8.48;5.30;;;;;;;14.10;88.48;100258.13;5029777;28;20041;-77
2022/06/02 00:36:28;;;;;;;6.18;5.25;;;;;;;14.22;88.44;100268.41;5051766;28;20048;-77
2022/06/02 00:38:57;;;;;;;6.57;4.97;;;;;;;14.10;89.55;100254.47;5051622;28;20100;-78
2022/06/02 00:41:36;;;;;;;8.35;5.53;;;;;;;14.23;89.05;100275.69;5035065;28;20098;-77
2022/06/02 00:44:39;;;;;;;6.90;4.88;;;;;;;14.21;88.93;100271.75;5051668;28;20028;-77
2022/06/02 00:47:28;;;;;;;6.88;5.22;;;;;;;14.24;88.29;100271.56;5052627;28;20029;-78
2022/06/02 00:50:05;;;;;;;7.32;4.82;;;;;;;14.25;87.74;100263.75;5050219;28;20048;-77
2022/06/02 00:52:41;;;;;;;7.65;5.28;;;;;;;14.03;87.98;100232.78;5057217;28;20017;-78
2022/06/02 00:58:01;;;;;;;7.40;6.70;;;;;;;14.00;88.76;100275.97;5056108;28;20094;-78
2022/06/02 01:00:44;;;;;;;11.25;5.68;;;;;;;13.89;90.31;100282.34;5056203;28;20021;-78
2022/06/02 01:03:24;;;;;;;9.10;5.68;;;;;;;13.89;90.69;100290.94;5058915;28;20088;-77
2022/06/02 01:05:56;;;;;;;8.48;6.28;;;;;;;13.89;90.31;100290.16;5040836;28;20017;-78
2022/06/02 01:08:40;;;;;;;8.70;5.85;;;;;;;13.97;90.67;100297.00;5057124;28;20159;-77
2022/06/02 01:11:37;;;;;;;7.10;5.88;;;;;;;13.87;90.92;100281.28;5057300;28;20024;-78
2022/06/02 01:14:30;;;;;;;9.10;6.18;;;;;;;13.94;90.62;100295.94;5056880;28;20052;-79
2022/06/02 01:17:17;;;;;;;8.02;5.47;;;;;;;13.93;90.86;100302.19;5057330;28;20361;-76
2022/06/02 01:20:02;;;;;;;7.80;5.80;;;;;;;13.88;91.31;100303.69;5056927;28;20393;-78
2022/06/02 01:23:03;;;;;;;8.30;6.28;;;;;;;13.82;90.10;100294.22;5056522;28;20059;-78
2022/06/02 01:25:31;;;;;;;6.57;5.80;;;;;;;13.74;92.00;100302.47;5057179;28;20108;-78
2022/06/02 01:28:22;;;;;;;9.02;5.78;;;;;;;13.74;92.45;100316.78;5057147;28;20105;-77
2022/06/02 01:31:25;;;;;;;8.30;5.90;;;;;;;13.75;92.09;100309.00;5055322;28;20032;-78
2022/06/02 01:34:19;;;;;;;7.30;6.03;;;;;;;13.71;92.66;100294.13;5056495;28;20056;-77
2022/06/02 01:36:57;;;;;;;8.10;6.47;;;;;;;13.65;92.71;100294.03;5055268;28;20036;-77
2022/06/02 01:39:28;;;;;;;7.55;6.65;;;;;;;13.65;92.51;100298.97;5038237;28;20036;-77
2022/06/02 01:42:09;;;;;;;8.05;6.10;;;;;;;13.54;93.12;100278.78;5056352;28;20381;-76
2022/06/02 01:44:37;;;;;;;9.50;6.15;;;;;;;13.73;92.46;100300.09;5056430;28;20385;-78
2022/06/02 01:47:07;;;;;;;8.68;5.75;;;;;;;13.81;92.12;100301.28;5055976;28;20381;-78
2022/06/02 01:49:45;;;;;;;6.65;5.70;;;;;;;13.79;92.25;100298.91;5055912;28;20045;-77
2022/06/02 01:52:11;;;;;;;7.40;6.07;;;;;;;13.92;91.53;100307.09;5038140;28;20025;-77
2022/06/02 01:54:58;;;;;;;6.72;5.90;;;;;;;13.93;91.11;100296.44;5056108;28;20040;-77
2022/06/02 01:57:42;;;;;;;7.35;5.28;;;;;;;13.96;90.61;100296.22;5040272;28;20049;-77
2022/06/02 02:00:18;;;;;;;6.82;5.68;;;;;;;13.94;90.94;100295.16;5054432;28;20433;-76
2022/06/02 02:02:58;;;;;;;6.57;5.25;;;;;;;13.88;90.42;100300.81;5055742;28;20111;-79
2022/06/02 02:05:29;;;;;;;9.23;5.65;;;;;;;13.82;91.15;100305.69;5056156;28;20112;-77
2022/06/02 02:08:22;;;;;;;6.00;5.38;;;;;;;13.83;91.27;100313.00;5055880;28;20025;-77
2022/06/02 02:10:53;;;;;;;8.05;5.40;;;;;;;13.88;91.33;100302.91;5055790;28;20104;-77
2022/06/02 02:13:23;;;;;;;5.90;5.30;;;;;;;13.93;90.49;100293.59;5055555;28;20052;-78
2022/06/02 02:16:10;;;;;;;5.97;5.35;;;;;;;13.96;90.64;100296.22;5055754;28;20068;-77
2022/06/02 02:18:45;;;;;;;7.45;5.32;;;;;;;13.96;91.08;100284.75;5054200;28;20025;-77
2022/06/02 02:21:26;;;;;;;7.00;5.15;;;;;;;13.83;90.63;100273.69;5054436;28;20032;-78
2022/06/02 02:24:10;;;;;;;7.97;5.30;;;;;;;13.86;90.13;100285.44;5054297;28;20421;-78
2022/06/02 02:27:06;;;;;;;5.25;4.75;;;;;;;13.77;90.44;100281.44;5055280;28;20037;-78
2022/06/02 02:29:57;;;;;;;5.93;4.72;;;;;;;13.72;91.09;100293.59;5053985;28;20385;-78
2022/06/02 02:32:40;;;;;;;10.00;5.32;;;;;;;13.72;90.60;100295.66;5053999;28;20059;-79
2022/06/02 02:35:06;;;;;;;6.72;5.65;;;;;;;13.75;90.79;100304.06;5054991;28;20533;-78
2022/06/02 02:37:41;;;;;;;6.43;5.43;;;;;;;13.74;91.16;100288.16;5054943;28;20116;-78
2022/06/02 02:40:12;;;;;;;4.93;4.43;;;;;;;13.73;90.97;100292.31;5053701;28;20020;-78
2022/06/02 02:42:51;;;;;;;8.63;5.22;;;;;;;13.83;91.42;100301.53;5055335;28;20021;-77
2022/06/02 02:45:28;;;;;;;9.05;5.03;;;;;;;13.87;90.58;100315.63;5038019;28;20029;-79
2022/06/02 02:47:54;;;;;;;5.78;5.07;;;;;;;13.88;90.94;100311.47;5053403;28;20526;-78
2022/06/02 02:50:51;;;;;;;5.68;5.07;;;;;;;13.84;91.65;100314.56;5053343;28;20139;-78
2022/06/02 02:53:38;;;;;;;6.78;6.00;;;;;;;13.87;91.19;100310.69;5053625;28;20029;-75
2022/06/02 02:56:28;;;;;;;7.25;5.10;;;;;;;13.84;90.97;100308.84;5037039;28;20465;-77
2022/06/02 02:58:58;;;;;;;6.53;5.05;;;;;;;13.78;90.34;100320.22;5053504;28;20438;-77
2022/06/02 03:01:45;;;;;;;6.60;5.20;;;;;;;13.76;90.65;100337.09;5053251;28;20024;-78
2022/06/02 03:04:10;;;;;;;8.18;4.95;;;;;;;13.77;90.17;100349.34;5053326;28;20226;-77
2022/06/02 03:06:39;;;;;;;5.88;5.28;;;;;;;13.71;91.73;100332.13;5054547;28;20482;-76
2022/06/02 03:09:15;;;;;;;7.57;5.28;;;;;;;13.75;90.78;100338.41;5036437;28;20033;-76
2022/06/02 03:11:53;;;;;;;9.32;5.07;;;;;;;13.84;90.30;100349.72;5052909;28;20033;-77
2022/06/02 03:14:40;;;;;;;7.50;4.53;;;;;;;13.93;90.69;100357.38;5053168;28;20056;-76
2022/06/02 03:17:32;;;;;;;5.68;4.53;;;;;;;14.00;89.62;100382.72;5052999;28;20028;-75
2022/06/02 03:20:18;;;;;;;10.95;6.05;;;;;;;14.08;88.64;100391.66;5026525;28;20036;-78
2022/06/02 03:23:07;;;;;;;5.20;4.38;;;;;;;14.15;88.58;100419.91;5053435;28;20029;-77
2022/06/02 03:25:38;;;;;;;5.50;4.03;;;;;;;14.15;87.56;100403.50;5052829;28;20028;-78
2022/06/02 03:28:20;;;;;;;4.50;3.77;;;;;;;14.18;87.29;100434.00;5054544;28;20032;-77
2022/06/02 03:31:25;;;;;;;5.53;4.10;;;;;;;14.20;87.18;100442.91;5052870;28;20612;-78
2022/06/02 03:34:06;;;;;;;4.20;3.75;;;;;;;14.15;86.60;100442.81;5036049;28;20029;-78
2022/06/02 03:36:50;;;;;;;4.47;3.58;;;;;;;14.14;85.33;100446.97;5036195;28;20497;-78
2022/06/02 03:39:22;;;;;;;5.30;4.10;;;;;;;14.16;85.71;100447.22;5052700;28;20059;-78
2022/06/02 03:42:13;;;;;;;6.95;4.05;;;;;;;14.10;86.06;100444.31;5053906;28;20039;-78
2022/06/02 03:44:46;;;;;;;5.75;4.78;;;;;;;13.90;85.80;100437.78;5034575;28;20102;-78
2022/06/02 03:47:14;;;;;;;5.47;4.32;;;;;;;14.10;85.78;100452.13;5036072;28;20493;-79
2022/06/02 03:49:46;;;;;;;6.03;4.55;;;;;;;14.13;85.97;100453.97;5039884;28;20044;-78
2022/06/02 03:52:39;;;;;;;7.15;4.78;;;;;;;14.14;84.75;100462.06;5043467;28;20033;-78
2022/06/02 03:55:38;;;;;;;6.13;4.45;;;;;;;14.15;84.70;100469.38;5052327;28;20470;-78
2022/06/02 03:58:25;;;;;;;5.45;4.00;;;;;;;14.24;83.08;100468.47;5053664;28;20108;-78
2022/06/02 04:00:57;;;;;;;4.32;3.70;;;;;;;14.35;81.68;100474.34;5053535;28;20032;-79
2022/06/02 04:03:47;;;;;;;5.93;3.55;;;;;;;14.47;80.78;100463.81;5052509;28;20059;-78
2022/06/02 04:06:15;;;;;;;2.88;2.60;;;;;;;14.65;78.89;100472.91;5052352;28;20454;-78
2022/06/02 04:08:41;;;;;;;3.78;3.05;;;;;;;14.91;77.06;100475.00;5053550;28;20463;-77
2022/06/02 04:11:24;;;;;;;2.55;2.35;;;;;;;15.15;75.04;100481.25;5052029;28;20036;-77
2022/06/02 04:14:08;;;;;;;4.63;2.80;;;;;;;15.28;74.24;100501.75;5053492;28;20036;-78
2022/06/02 04:16:46;;;;;;;2.85;2.22;;;;;;;15.30;73.51;100507.75;5035532;28;20579;-79
2022/06/02 04:22:22;;;;;;;2.60;2.40;;;;;;;15.31;73.73;100511.41;5052650;28;20496;-79
2022/06/02 04:25:12;;;;;;;3.28;2.72;;;;;;;15.14;73.59;100499.78;5052115;28;20043;-79
2022/06/02 04:28:04;;;;;;;2.90;2.60;;;;;;;15.07;74.26;100508.84;5052147;28;20021;-79
2022/06/02 04:30:55;;;;;;;2.97;2.15;;;;;;;15.04;73.47;100507.78;5035689;28;20489;-79
2022/06/02 04:33:33;;;;;;;2.65;2.25;;;;;;;15.06;73.07;100515.84;5053093;28;20414;-78
2022/06/02 04:36:30;;;;;;;2.55;1.95;;;;;;;15.08;72.00;100527.63;5053450;28;20037;-78
2022/06/02 04:39:12;;;;;;;2.47;1.90;;;;;;;15.11;71.90;100540.97;5053224;28;20090;-78
2022/06/02 04:42:04;;;;;;;3.45;2.38;;;;;;;15.11;72.70;100536.00;5051992;28;20032;-78
2022/06/02 04:44:50;;;;;;;2.40;2.13;;;;;;;15.05;72.73;100540.09;5051869;28;20029;-78
2022/06/02 04:47:49;;;;;;;2.33;2.05;;;;;;;15.05;73.12;100540.09;5052668;28;20039;-78
2022/06/02 04:50:48;;;;;;;2.58;1.92;;;;;;;15.12;73.32;100546.19;5057235;28;20053;-77
2022/06/02 04:53:37;;;;;;;2.78;2.10;;;;;;;15.18;73.86;100542.59;5053497;28;20040;-79
2022/06/02 04:56:19;;;;;;;9.18;3.40;;;;;;;15.16;75.63;100542.31;5035241;28;20032;-80
2022/06/02 04:59:13;;;;;;;4.10;2.50;;;;;;;15.13;76.59;100547.78;5054515;28;20083;-81
2022/06/02 05:01:58;;;;;;;4.63;2.67;;;;;;;15.07;76.33;100554.75;5053615;28;20039;-82
2022/06/02 05:04:39;;;;;;;4.55;2.80;;;;;;;14.99;78.78;100565.09;5053458;28;20060;-81
2022/06/02 05:07:27;;;;;;;5.37;2.73;;;;;;;14.86;80.70;100576.91;5037783;28;20083;-84
2022/06/02 05:10:23;;;;;;;3.10;2.35;;;;;;;14.72;81.43;100582.72;5021481;28;20120;-77
2022/06/02 05:13:27;;;;;;;5.28;3.40;;;;;;;14.63;81.62;100592.25;5054415;28;20033;-78
2022/06/02 05:16:24;;;;;;;5.55;4.32;;;;;;;14.57;83.30;100577.84;5052536;28;20453;-78
2022/06/02 05:19:40;;;;;;;4.20;3.40;;;;;;;14.71;84.80;100573.31;5055112;28;20060;-81
2022/06/02 05:22:30;;;;;;;7.72;3.67;;;;;;;14.79;84.22;100571.63;5025138;28;20046;-83
2022/06/02 05:25:35;;;;;;;4.75;3.10;;;;;;;14.90;85.47;100573.84;5061257;28;20029;-83
2022/06/02 05:28:30;;;;;;;5.53;3.60;;;;;;;15.07;84.31;100589.97;5014195;28;20049;-78
2022/06/02 05:31:35;;;;;;;4.28;2.63;;;;;;;15.19;83.96;100602.38;5053389;28;20032;-79
2022/06/02 05:34:20;;;;;;;11.35;4.38;;;;;;;15.25;84.07;100597.47;5033320;28;20053;-81
2022/06/02 05:36:51;;;;;;;4.82;3.88;;;;;;;15.54;84.17;100599.41;5055500;28;20039;-80
2022/06/02 05:40:04;;;;;;;6.72;3.75;;;;;;;16.09;84.94;100601.16;5054673;28;20021;-80
2022/06/02 05:42:43;;;;;;;4.85;4.25;;;;;;;16.41;81.15;100582.59;5044274;28;20029;-81
2022/06/02 05:45:39;;;;;;;4.18;3.78;;;;;;;16.73;79.37;100589.06;5055417;28;20048;-80
2022/06/02 05:48:47;;;;;;;7.55;3.80;;;;;;;16.96;79.06;100576.38;5055143;28;20033;-81
2022/06/02 05:51:24;;;;;;;5.75;4.47;;;;;;;17.02;78.24;100580.06;5033202;28;20140;-81
2022/06/02 05:54:14;;;;;;;4.75;3.58;;;;;;;16.96;76.78;100590.78;5056001;28;20166;-80
2022/06/02 05:56:49;;;;;;;4.82;3.80;;;;;;;16.79;75.43;100601.41;5053738;28;20079;-82
2022/06/02 05:59:33;;;;;;;4.68;3.75;;;;;;;16.55;75.09;100633.41;5054700;28;20082;-80
2022/06/02 06:02:16;;;;;;;4.30;3.80;;;;;;;16.47;76.07;100612.19;5053868;28;20233;-81
2022/06/02 06:05:01;;;;;;;4.32;3.22;;;;;;;16.47;76.02;100622.91;5057415;28;20382;-82
2022/06/02 06:08:04;;;;;;;4.55;2.72;;;;;;;16.42;76.42;100630.97;5054852;28;20033;-81
2022/06/02 06:10:40;;;;;;;2.83;2.50;;;;;;;16.56;76.48;100631.31;5056512;28;20017;-81
2022/06/02 06:13:26;;;;;;;4.57;2.70;;;;;;;16.67;76.03;100631.44;5055177;28;20021;-80
2022/06/02 06:15:58;;;;;;;3.70;3.28;;;;;;;16.77;76.18;100624.94;5038052;28;20029;-80
2022/06/02 06:18:57;;;;;;;4.22;3.47;;;;;;;16.80;74.16;100626.81;5056553;28;20137;-81
2022/06/02 06:21:32;;;;;;;2.92;2.70;;;;;;;16.72;74.15;100627.81;5054501;28;20078;-81
2022/06/02 06:24:35;;;;;;;3.60;3.13;;;;;;;16.58;74.75;100638.16;5054410;28;20045;-80
2022/06/02 06:27:30;;;;;;;3.50;3.20;;;;;;;16.52;75.03;100627.91;5055203;28;20025;-81
2022/06/02 06:30:12;;;;;;;3.92;3.42;;;;;;;16.30;74.08;100626.44;5054535;28;20032;-80
2022/06/02 06:32:46;;;;;;;4.40;3.03;;;;;;;16.07;74.98;100621.81;5055810;28;20426;-81
2022/06/02 06:35:30;;;;;;;4.63;2.30;;;;;;;17.42;75.88;100624.16;5054387;28;20124;-81
2022/06/02 06:38:45;;;;;;;4.72;2.55;;;;;;;20.19;65.95;100616.13;5054135;28;20535;-81
2022/06/02 06:41:22;;;;;;;2.30;2.10;;;;;;;22.54;56.25;100609.66;5055009;28;20032;-80
2022/06/02 06:44:18;;;;;;;2.25;2.05;;;;;;;24.83;48.74;100617.66;5055879;28;20037;-81
2022/06/02 06:47:12;;;;;;;2.70;2.00;;;;;;;26.69;41.48;100618.00;5053713;28;20115;-81
2022/06/02 06:49:51;;;;;;;2.90;2.40;;;;;;;28.06;35.03;100614.63;5054390;28;20435;-80
2022/06/02 06:52:53;;;;;;;2.92;2.10;;;;;;;29.01;32.41;100620.16;5036890;28;20124;-81
2022/06/02 06:55:38;;;;;;;2.72;2.10;;;;;;;30.01;30.90;100624.25;5053564;28;20104;-83
2022/06/02 06:58:23;;;;;;;2.55;2.35;;;;;;;30.66;29.21;100636.22;5054059;28;20032;-81
2022/06/02 07:01:03;;;;;;;1.95;1.85;;;;;;;30.66;27.60;100626.59;5053904;28;20029;-82
2022/06/02 07:03:53;;;;;;;4.67;2.60;;;;;;;30.86;26.59;100640.78;5053843;28;20030;-82
2022/06/02 07:06:21;;;;;;;4.40;2.05;;;;;;;31.76;26.77;100630.06;5054592;28;20029;-81
2022/06/02 07:08:52;;;;;;;3.65;2.33;;;;;;;32.41;24.46;100629.75;5053402;28;20443;-81
2022/06/02 07:14:38;;;;;;;2.42;1.88;;;;;;;34.21;23.44;100630.50;5054737;28;20094;-81
2022/06/02 07:17:10;;;;;;;5.00;2.03;;;;;;;34.27;24.03;100633.88;5053549;28;20053;-81
2022/06/02 07:19:42;;;;;;;2.45;2.10;;;;;;;34.27;23.14;100624.97;5053132;28;20028;-82
2022/06/02 07:22:37;;;;;;;2.88;2.50;;;;;;;33.87;22.12;100628.97;5053317;28;20057;-82
2022/06/02 07:25:21;;;;;;;2.63;2.30;;;;;;;34.88;21.58;100641.50;5036641;28;20033;-82
2022/06/02 07:27:55;;;;;;;3.72;2.30;;;;;;;35.54;21.25;100635.19;5053073;28;20071;-81
2022/06/02 07:30:23;;;;;;;1.95;1.85;;;;;;;35.83;22.25;100641.44;5036497;28;20029;-81
2022/06/02 07:33:17;;;;;;;3.05;1.83;;;;;;;35.79;19.63;100640.41;5053141;28;20033;-80
2022/06/02 07:35:43;;;;;;;2.80;2.20;;;;;;;36.06;21.96;100645.72;5038992;28;20040;-82
2022/06/02 07:38:42;;;;;;;3.57;2.00;;;;;;;35.59;21.32;100645.88;5056679;28;20032;-80
2022/06/02 07:41:16;;;;;;;1.90;1.80;;;;;;;33.66;21.90;100655.59;5054230;28;20259;-78
2022/06/02 07:43:59;;;;;;;3.55;2.42;;;;;;;33.09;22.54;100650.88;5052810;28;20488;-80
2022/06/02 07:46:40;;;;;;;2.20;2.10;;;;;;;33.44;22.43;100651.13;5052641;28;20040;-80
2022/06/02 07:49:31;;;;;;;2.55;2.30;;;;;;;34.56;22.34;100651.25;5035994;28;20512;-80
2022/06/02 07:52:26;;;;;;;2.15;1.90;;;;;;;35.22;23.09;100645.09;5053724;28;20025;-79
2022/06/02 07:54:57;;;;;;;2.33;2.13;;;;;;;35.08;19.77;100650.88;5035796;28;20477;-81
2022/06/02 07:57:23;;;;;;;1.90;1.80;;;;;;;35.36;21.77;100654.84;5052158;28;20366;-80
2022/06/02 08:00:28;;;;;;;2.30;1.83;;;;;;;35.29;20.33;100644.03;5051676;28;20025;-81
2022/06/02 08:03:15;;;;;;;2.15;2.00;;;;;;;34.51;20.81;100652.41;4983728;28;20423;-84
2022/06/02 08:05:54;;;;;;;3.70;2.30;;;;;;;34.15;21.91;100656.69;4992694;28;20042;-80
2022/06/02 08:08:45;;;;;;;2.20;2.00;;;;;;;34.38;21.84;100653.06;4986782;28;20172;-82
2022/06/02 08:11:36;;;;;;;2.10;1.90;;;;;;;33.42;21.79;100660.59;5013578;28;20034;-82
2022/06/02 08:14:22;;;;;;;2.28;2.10;;;;;;;33.33;22.68;100658.50;5009237;28;20045;-79
2022/06/02 08:16:55;;;;;;;3.22;2.67;;;;;;;32.91;23.33;100671.00;5049407;28;20029;-77
2022/06/02 08:19:40;;;;;;;3.67;2.35;;;;;;;33.35;21.38;100671.22;5053123;28;20078;-77
2022/06/02 08:22:11;;;;;;;2.13;1.90;;;;;;;34.18;21.36;100670.25;5053555;28;20095;-77
2022/06/02 08:24:56;;;;;;;2.00;1.52;;;;;;;34.79;21.03;100683.84;5051988;28;20032;-77
2022/06/02 08:27:50;;;;;;;4.28;3.30;;;;;;;35.08;19.43;100660.53;5053238;28;20037;-77
2022/06/02 08:30:25;;;;;;;2.25;1.80;;;;;;;33.95;19.94;100676.03;5051685;28;20032;-78
2022/06/02 08:33:13;;;;;;;1.77;1.55;;;;;;;33.36;20.08;100684.59;5051722;28;20104;-79
2022/06/02 08:35:53;;;;;;;1.70;1.50;;;;;;;32.84;20.93;100680.84;5053314;28;20362;-76
2022/06/02 08:38:37;;;;;;;3.33;2.40;;;;;;;31.87;24.24;100676.59;5053225;28;20025;-78
2022/06/02 08:41:28;;;;;;;1.38;1.25;;;;;;;31.72;23.63;100668.84;5051929;28;20136;-77
2022/06/02 08:44:16;;;;;;;1.98;1.50;;;;;;;31.73;22.47;100673.31;5052428;28;20037;-78
2022/06/02 08:47:19;;;;;;;2.38;1.95;;;;;;;31.70;22.69;100692.25;5035292;28;20029;-78
2022/06/02 08:50:33;;;;;;;0.98;0.93;;;;;;;31.96;23.20;100688.34;5052672;28;20049;-77
2022/06/02 08:53:14;;;;;;;1.40;1.20;;;;;;;32.30;23.89;100690.19;5052240;28;20029;-77
2022/06/02 08:56:11;;;;;;;1.65;1.20;;;;;;;32.55;22.81;100680.94;5051894;28;20362;-77
2022/06/02 08:58:59;;;;;;;1.60;1.50;;;;;;;32.73;22.53;100687.41;5051125;28;20032;-78
2022/06/02 09:02:03;;;;;;;1.50;1.40;;;;;;;32.80;22.72;100684.28;5043353;28;20164;-77
2022/06/02 09:04:46;;;;;;;2.10;1.27;;;;;;;33.00;22.46;100684.97;5033237;28;20033;-77
2022/06/02 09:07:31;;;;;;;1.85;1.42;;;;;;;32.75;22.04;100684.63;5034903;28;20029;-77
2022/06/02 09:10:16;;;;;;;1.40;1.25;;;;;;;32.85;21.95;100688.31;5038421;28;20489;-78
2022/06/02 09:13:14;;;;;;;2.65;1.20;;;;;;;32.56;21.97;100689.16;5036659;28;20033;-77
2022/06/02 09:16:10;;;;;;;1.38;1.15;;;;;;;32.31;23.74;100688.00;5038079;28;20036;-78
2022/06/02 09:19:03;;;;;;;1.63;1.30;;;;;;;32.12;21.99;100689.59;5036602;28;20033;-77
2022/06/02 09:22:00;;;;;;;0.93;0.93;;;;;;;32.09;23.56;100701.81;5036847;28;20033;-76
2022/06/02 09:24:50;;;;;;;1.80;1.05;;;;;;;32.18;22.69;100682.59;4998380;28;20080;-76
2022/06/02 09:27:31;;;;;;;1.00;0.90;;;;;;;31.88;23.72;100704.63;5036722;28;20462;-77
2022/06/02 09:30:15;;;;;;;5.57;1.50;;;;;;;31.62;22.05;100706.38;5036487;28;20505;-76
2022/06/02 09:33:33;;;;;;;1.65;1.50;;;;;;;31.24;23.76;100704.88;5036687;28;20044;-76
2022/06/02 09:36:16;;;;;;;2.33;1.42;;;;;;;30.60;22.96;100717.31;5036186;28;20385;-76
2022/06/02 09:39:21;;;;;;;1.50;1.40;;;;;;;30.15;24.51;100712.81;5021435;28;20049;-77
2022/06/02 09:42:19;;;;;;;1.67;1.55;;;;;;;29.93;25.85;100715.47;5025254;28;20041;-80
2022/06/02 09:45:26;;;;;;;3.60;1.80;;;;;;;29.24;25.31;100705.03;5034780;28;20033;-80
2022/06/02 09:48:14;;;;;;;1.77;1.27;;;;;;;29.34;26.83;100694.19;5035949;28;20116;-76
2022/06/02 09:50:59;;;;;;;5.85;1.20;;;;;;;29.14;25.76;100696.91;5044653;28;20469;-77
2022/06/02 09:53:38;;;;;;;1.20;1.10;;;;;;;28.73;28.57;100704.28;5055569;28;20036;-76
2022/06/02 09:56:54;;;;;;;0.88;0.88;;;;;;;28.32;27.83;100707.84;5054153;28;20036;-76
2022/06/02 09:59:28;;;;;;;0.77;0.77;;;;;;;28.24;27.63;100704.19;4958311;28;20162;-76
2022/06/02 10:02:05;;;;;;;1.45;0.80;;;;;;;27.90;26.75;100707.66;5000664;28;20124;-76
2022/06/02 10:05:01;;;;;;;0.93;0.90;;;;;;;27.71;27.16;100711.06;5038199;28;20029;-76
2022/06/02 10:07:59;;;;;;;3.40;1.40;;;;;;;27.55;26.02;100699.97;5007510;28;20509;-77
2022/06/02 10:10:48;;;;;;;1.33;1.17;;;;;;;27.39;27.54;100702.91;5055577;28;20036;-76
2022/06/02 10:13:48;;;;;;;3.45;1.35;;;;;;;27.29;29.00;100713.66;5037625;28;20036;-77
2022/06/02 10:16:22;;;;;;;1.10;1.00;;;;;;;27.33;27.86;100711.09;5020946;28;20124;-77
2022/06/02 10:19:23;;;;;;;1.13;1.05;;;;;;;27.26;29.49;100703.13;5055520;28;20072;-76
2022/06/02 10:22:19;;;;;;;1.17;1.08;;;;;;;26.93;27.89;100713.91;5056040;28;20044;-78
2022/06/02 10:25:04;;;;;;;0.95;0.90;;;;;;;26.61;29.72;100717.34;5055310;28;20020;-79
2022/06/02 10:27:55;;;;;;;1.70;1.42;;;;;;;26.45;27.81;100712.84;5038562;28;20033;-77
2022/06/02 10:30:45;;;;;;;2.40;1.58;;;;;;;26.30;28.90;100712.03;5037897;28;20032;-75
2022/06/02 10:33:42;;;;;;;3.15;1.10;;;;;;;26.24;29.68;100715.13;5037433;28;20032;-78
2022/06/02 10:37:00;;;;;;;7.95;1.90;;;;;;;26.03;29.01;100709.41;5015199;28;20037;-79
2022/06/02 10:40:00;;;;;;;1.45;1.35;;;;;;;25.97;30.35;100708.00;4978842;28;20148;-79
2022/06/02 10:42:52;;;;;;;1.85;1.20;;;;;;;25.83;28.66;100706.56;4957692;29;20032;-77
2022/06/02 10:45:47;;;;;;;2.92;1.27;;;;;;;25.57;29.64;100708.41;4956528;29;20110;-75
2022/06/02 10:48:31;;;;;;;1.13;1.02;;;;;;;25.11;30.71;100697.78;5024097;28;20496;-77
2022/06/02 10:51:09;;;;;;;2.53;1.70;;;;;;;24.88;29.27;100712.16;5013696;28;20057;-78
2022/06/02 10:54:16;;;;;;;3.28;1.17;;;;;;;24.57;31.09;100711.06;5015061;28;20141;-77
2022/06/02 10:57:04;;;;;;;1.13;1.13;;;;;;;24.46;32.62;100702.63;4993285;28;20057;-76
2022/06/02 10:59:42;;;;;;;3.55;1.27;;;;;;;24.34;32.83;100699.19;5016499;28;20096;-79
2022/06/02 11:02:40;;;;;;;1.30;0.90;;;;;;;24.40;32.45;100694.03;5014418;28;20553;-80
2022/06/02 11:05:16;;;;;;;1.00;0.90;;;;;;;24.23;33.15;100692.84;5014311;28;20053;-79
2022/06/02 11:08:04;;;;;;;2.60;1.15;;;;;;;24.01;33.69;100683.28;5014110;28;20057;-79
2022/06/02 11:10:30;;;;;;;0.88;0.88;;;;;;;23.74;34.56;100687.59;5016188;28;20124;-80
2022/06/02 11:13:24;;;;;;;2.05;1.00;;;;;;;23.54;32.95;100697.81;5015846;28;20065;-80
2022/06/02 11:16:11;;;;;;;1.42;0.82;;;;;;;23.41;32.82;100697.81;5015491;28;20474;-80
2022/06/02 11:18:59;;;;;;;1.55;1.20;;;;;;;23.41;32.15;100700.72;5014050;28;20025;-78
2022/06/02 11:22:05;;;;;;;1.02;1.02;;;;;;;23.26;32.35;100688.84;5015689;28;20030;-79
2022/06/02 11:25:06;;;;;;;1.98;1.77;;;;;;;23.21;33.04;100702.16;5016321;28;20038;-78
2022/06/02 11:27:51;;;;;;;3.88;1.42;;;;;;;23.16;32.83;100685.63;5015144;28;20025;-77
2022/06/02 11:30:47;;;;;;;2.28;1.15;;;;;;;23.26;33.60;100694.66;5012948;28;20030;-77
2022/06/02 11:33:43;;;;;;;3.40;1.17;;;;;;;23.47;34.46;100677.38;5014684;28;20036;-81
2022/06/02 11:36:33;;;;;;;8.25;1.42;;;;;;;23.46;34.80;100681.59;5014205;28;20033;-81
2022/06/02 11:39:18;;;;;;;1.65;1.17;;;;;;;23.42;32.74;100679.00;5017629;28;20056;-86
2022/06/02 11:42:22;;;;;;;1.58;0.90;;;;;;;23.45;32.31;100680.03;5023392;28;20484;-82
2022/06/02 11:45:17;;;;;;;4.85;1.80;;;;;;;23.52;31.82;100685.97;5034582;28;20037;-83
2022/06/02 11:48:01;;;;;;;2.35;0.93;;;;;;;23.45;31.71;100680.81;5029990;28;20061;-82
2022/06/02 11:50:48;;;;;;;0.88;0.85;;;;;;;23.32;31.75;100680.03;5051628;28;20136;-84
2022/06/02 11:53:42;;;;;;;2.63;1.30;;;;;;;23.18;33.11;100691.66;5055760;28;20033;-84
2022/06/02 11:56:27;;;;;;;1.27;1.15;;;;;;;23.02;32.44;100689.84;5052995;28;20024;-84
2022/06/02 11:58:56;;;;;;;0.85;0.85;;;;;;;22.85;32.85;100689.38;5040645;28;20036;-82
2022/06/02 12:01:45;;;;;;;1.98;1.10;;;;;;;22.84;33.85;100690.72;5034541;28;20029;-84
2022/06/02 12:04:47;;;;;;;2.60;1.33;;;;;;;22.85;31.70;100680.66;5034104;28;20381;-81
2022/06/02 12:07:36;;;;;;;1.70;1.23;;;;;;;22.83;31.90;100689.16;5033787;28;20033;-78
2022/06/02 12:10:11;;;;;;;1.73;0.77;;;;;;;22.90;32.34;100684.78;5031301;28;20086;-79
2022/06/02 12:12:42;;;;;;;2.45;1.75;;;;;;;22.73;31.90;100691.72;5031972;28;20108;-78
2022/06/02 12:15:26;;;;;;;1.23;0.80;;;;;;;22.55;32.56;100695.41;5030964;28;20053;-79
2022/06/02 12:18:16;;;;;;;0.93;0.73;;;;;;;22.70;34.58;100684.09;5031164;28;20037;-79
2022/06/02 12:20:54;;;;;;;2.53;1.20;;;;;;;22.73;32.95;100683.00;5048480;28;20413;-78
2022/06/02 12:23:47;;;;;;;1.92;0.88;;;;;;;22.74;31.18;100690.34;5033225;28;20022;-78
2022/06/02 12:26:40;;;;;;;1.02;0.75;;;;;;;22.69;32.20;100685.44;5032599;28;20053;-79
2022/06/02 12:29:53;;;;;;;0.80;0.60;;;;;;;22.66;32.39;100688.63;5030714;28;20079;-78
2022/06/02 12:32:56;;;;;;;0.75;0.60;;;;;;;22.68;32.72;100683.06;4987328;28;20402;-77
2022/06/02 12:35:37;;;;;;;0.65;0.63;;;;;;;22.64;34.18;100671.78;5050246;28;20029;-77
2022/06/02 12:38:17;;;;;;;0.90;0.73;;;;;;;22.57;34.49;100677.44;5051926;28;20095;-79
2022/06/02 12:41:08;;;;;;;1.13;0.80;;;;;;;22.67;33.95;100693.09;5035445;28;20029;-77
2022/06/02 12:44:00;;;;;;;2.15;1.05;;;;;;;22.51;33.60;100682.56;5033056;28;20037;-77
2022/06/02 12:46:35;;;;;;;1.15;1.05;;;;;;;22.53;32.70;100677.78;5024039;28;20044;-78
2022/06/02 12:49:13;;;;;;;2.70;1.38;;;;;;;22.49;33.17;100693.97;5053193;28;20041;-77
2022/06/02 12:51:53;;;;;;;2.72;1.02;;;;;;;22.51;32.78;100685.47;5034971;28;20029;-78
2022/06/02 12:54:56;;;;;;;2.33;0.80;;;;;;;22.62;32.47;100691.88;5052901;28;20033;-79
2022/06/02 12:57:42;;;;;;;7.55;2.17;;;;;;;22.68;32.62;100680.16;5053042;28;20060;-78
2022/06/02 13:00:33;;;;;;;1.48;1.23;;;;;;;22.72;32.33;100680.63;5052947;28;20056;-78